.
WxDataArchive / Data Records for 2008-06-17
2008-06-16 June 2008 2008-06-18

Data Records for Tuesday, 17 June 2008

Time	Temp	Chill	HIndex	Humid	Dewpt	 Wind 	HiWind	WindDir	Rain 	Barom 
-----	----	-----	------	-----	-----	------	------	-------	-----	----- 
00:00	54.8	54.8	54.8	73	46.3	0	0	---	0.00	29.918 
00:05	54.7	54.7	54.7	73	46.2	0	0	---	0.00	29.917 
00:10	54.4	54.4	54.4	74	46.3	0	0	---	0.00	29.919 
00:15	54.1	54.1	54.1	76	46.7	0	0	---	0.00	29.922 
00:20	53.9	53.9	53.9	77	46.9	0	0	---	0.00	29.922 
00:25	53.8	53.8	53.8	78	47.1	0	0	---	0.00	29.920 
00:30	53.8	53.8	53.8	79	47.4	0	0	---	0.00	29.918 
00:35	53.8	53.8	53.8	79	47.4	0	0	---	0.00	29.918 
00:40	53.9	53.9	53.9	79	47.5	0	0	---	0.00	29.917 
00:45	54.1	54.1	54.1	80	48.1	0	0	---	0.00	29.917 
00:50	54.4	54.4	54.4	80	48.4	0	0	---	0.00	29.916 
00:55	54.7	54.7	54.7	80	48.7	0	0	---	0.00	29.914 
01:00	55.0	55.0	55.0	78	48.3	0	0	---	0.00	29.914 
01:05	55.4	55.4	55.4	76	48.0	0	0	---	0.00	29.914 
01:10	55.9	55.9	55.9	75	48.1	0	1	292	0.00	29.912 
01:15	56.3	56.3	56.3	73	47.8	0	1	292	0.00	29.912 
01:20	56.6	56.6	56.6	73	48.0	0	1	292	0.00	29.909 
01:25	56.7	56.7	56.7	72	47.8	0	1	292	0.00	29.910 
01:30	56.9	56.9	56.9	71	47.6	0	1	292	0.00	29.906 
01:35	57.0	57.0	57.0	71	47.7	0	1	292	0.00	29.904 
01:40	57.2	57.2	57.2	70	47.5	0	1	292	0.00	29.903 
01:45	57.2	57.2	57.2	71	47.9	0	1	292	0.00	29.902 
01:50	57.2	57.2	57.2	71	47.9	0	1	292	0.00	29.900 
01:55	57.2	57.2	57.2	70	47.5	0	1	292	0.00	29.900 
02:00	57.2	57.2	57.2	70	47.5	0	1	292	0.00	29.900 
02:05	57.0	57.0	57.0	70	47.3	0	1	292	0.00	29.903 
02:10	56.7	56.7	56.7	70	47.0	0	1	292	0.00	29.905 
02:15	56.5	56.5	56.5	71	47.2	0	0	---	0.00	29.904 
02:20	56.3	56.3	56.3	72	47.4	0	0	---	0.00	29.904 
02:25	56.0	56.0	56.0	73	47.5	0	0	---	0.00	29.904 
02:30	55.9	55.9	55.9	73	47.4	0	0	---	0.00	29.905 
02:35	55.6	55.6	55.6	74	47.4	0	0	---	0.00	29.904 
02:40	55.3	55.3	55.3	74	47.2	0	0	---	0.00	29.904 
02:45	55.1	55.1	55.1	75	47.3	0	0	---	0.00	29.903 
02:50	54.8	54.8	54.8	76	47.4	0	0	---	0.00	29.904 
02:55	54.5	54.5	54.5	77	47.4	0	0	---	0.00	29.904 
03:00	54.4	54.4	54.4	78	47.7	0	0	---	0.00	29.906 
03:05	54.1	54.1	54.1	78	47.4	0	0	---	0.00	29.910 
03:10	53.9	53.9	53.9	79	47.5	0	0	---	0.00	29.909 
03:15	53.8	53.8	53.8	80	47.8	0	0	---	0.00	29.909 
03:20	53.6	53.6	53.6	80	47.6	0	0	---	0.00	29.908 
03:25	53.3	53.3	53.3	81	47.6	0	0	---	0.00	29.910 
03:30	53.1	53.1	53.1	81	47.4	0	0	---	0.00	29.908 
03:35	52.8	52.8	52.8	82	47.5	0	0	---	0.00	29.909 
03:40	52.6	52.6	52.6	83	47.6	0	0	---	0.00	29.912 
03:45	52.3	52.3	52.3	84	47.6	0	0	---	0.00	29.915 
03:50	52.2	52.2	52.2	84	47.5	0	0	---	0.00	29.917 
03:55	52.0	52.0	52.0	85	47.6	0	0	---	0.00	29.918 
04:00	51.9	51.9	51.9	86	47.8	0	0	---	0.00	29.915 
04:05	51.7	51.7	51.7	86	47.6	0	0	---	0.00	29.919 
04:10	51.7	51.7	51.7	87	48.0	0	0	---	0.00	29.919 
04:15	51.6	51.6	51.6	87	47.9	0	0	---	0.00	29.921 
04:20	51.4	51.4	51.4	87	47.7	0	0	---	0.00	29.923 
04:25	51.3	51.3	51.3	87	47.6	0	0	---	0.00	29.923 
04:30	51.0	51.0	51.0	88	47.6	0	0	---	0.00	29.923 
04:35	50.8	50.8	50.8	88	47.4	0	0	---	0.00	29.923 
04:40	50.7	50.7	50.7	88	47.3	0	0	---	0.00	29.924 
04:45	50.5	50.5	50.5	89	47.4	0	0	---	0.00	29.925 
04:50	50.4	50.4	50.4	89	47.3	0	0	---	0.00	29.926 
04:55	50.2	50.2	50.2	90	47.4	0	0	---	0.00	29.926 
05:00	50.2	50.2	50.2	90	47.4	0	0	---	0.00	29.926 
05:05	50.2	50.2	50.2	91	47.7	0	0	---	0.00	29.930 
05:10	50.4	50.4	50.4	91	47.9	0	0	---	0.00	29.929 
05:15	50.5	50.5	50.5	92	48.3	0	0	---	0.00	29.928 
05:20	50.8	50.8	50.8	91	48.3	0	0	---	0.00	29.928 
05:25	51.1	51.1	51.1	91	48.6	0	0	---	0.00	29.927 
05:30	51.3	51.3	51.3	91	48.8	0	0	---	0.00	29.929 
05:35	51.4	51.4	51.4	90	48.6	0	0	---	0.00	29.930 
05:40	51.7	51.7	51.7	90	48.9	0	0	---	0.00	29.932 
05:45	51.9	51.9	51.9	89	48.8	0	0	---	0.00	29.933 
05:50	52.2	52.2	52.2	88	48.8	0	0	---	0.00	29.935 
05:55	52.3	52.3	52.3	88	48.9	0	0	---	0.00	29.934 
06:00	52.6	52.6	52.6	88	49.1	0	0	---	0.00	29.933 
06:05	52.9	52.9	52.9	87	49.1	0	0	---	0.00	29.936 
06:10	53.3	53.3	53.3	86	49.2	0	0	---	0.00	29.938 
06:15	53.6	53.6	53.6	85	49.2	0	1	292	0.00	29.937 
06:20	54.2	54.2	54.2	84	49.5	0	1	292	0.00	29.937 
06:25	54.8	54.8	54.8	83	49.7	0	1	292	0.00	29.935 
06:30	55.3	55.3	55.3	81	49.6	0	1	292	0.00	29.932 
06:35	55.9	55.9	55.9	79	49.5	0	1	292	0.00	29.929 
06:40	56.5	56.5	56.5	78	49.7	0	1	292	0.00	29.928 
06:45	56.9	56.9	56.9	77	49.8	0	1	292	0.00	29.928 
06:50	57.2	57.2	57.2	76	49.7	0	1	292	0.00	29.932 
06:55	57.6	57.6	57.6	74	49.4	0	2	292	0.00	29.931 
07:00	58.1	58.1	58.1	73	49.5	1	2	292	0.00	29.933 
07:05	58.6	58.6	58.6	72	49.6	0	2	292	0.00	29.935 
07:10	59.0	59.0	59.0	71	49.6	1	3	292	0.00	29.938 
07:15	59.5	59.5	59.5	72	50.5	0	2	292	0.00	29.938 
07:20	59.9	59.9	59.9	69	49.7	1	3	292	0.00	29.937 
07:25	60.1	60.1	60.1	66	48.7	1	4	292	0.00	29.937 
07:30	60.4	60.4	60.4	66	49.0	1	2	292	0.00	29.937 
07:35	60.7	60.7	60.7	66	49.3	1	2	292	0.00	29.937 
07:40	60.9	60.9	60.9	65	49.1	1	3	270	0.00	29.937 
07:45	61.2	61.2	61.2	66	49.7	1	3	270	0.00	29.937 
07:50	61.6	61.6	61.6	64	49.3	1	3	248	0.00	29.936 
07:55	61.8	61.8	61.8	63	49.1	1	2	248	0.00	29.936 
08:00	61.8	61.8	61.8	64	49.5	1	2	270	0.00	29.936 
08:05	61.6	61.6	61.6	63	48.9	1	3	248	0.00	29.939 
08:10	61.5	61.5	61.5	64	49.2	1	3	270	0.00	29.939 
08:15	61.6	61.6	61.6	65	49.7	1	2	270	0.00	29.939 
08:20	62.1	62.1	62.1	63	49.3	1	3	248	0.00	29.940 
08:25	62.4	62.4	62.4	63	49.6	1	3	225	0.00	29.942 
08:30	62.4	62.4	62.4	62	49.2	1	2	225	0.00	29.942 
08:35	62.4	62.4	62.4	63	49.6	0	2	225	0.00	29.944 
08:40	62.6	62.6	62.6	62	49.4	1	4	248	0.00	29.942 
08:45	62.6	62.6	62.6	63	49.8	1	3	248	0.00	29.943 
08:50	62.3	62.3	62.3	62	49.1	2	5	248	0.00	29.946 
08:55	62.3	62.3	62.3	62	49.1	1	4	248	0.00	29.943 
09:00	62.4	62.4	62.4	62	49.2	1	3	270	0.00	29.942 
09:05	63.1	63.1	63.1	61	49.4	2	6	248	0.00	29.940 
09:10	63.9	63.9	63.9	61	50.2	2	4	315	0.00	29.938 
09:15	64.3	64.3	64.3	59	49.7	2	4	270	0.00	29.937 
09:20	64.5	64.5	64.5	58	49.4	2	4	270	0.00	29.937 
09:25	64.7	64.7	64.7	58	49.6	2	4	270	0.00	29.934 
09:30	64.7	64.7	64.7	58	49.6	3	5	270	0.00	29.935 
09:35	65.0	65.0	65.0	59	50.3	2	5	270	0.00	29.932 
09:40	65.0	65.0	65.0	59	50.3	3	6	270	0.00	29.931 
09:45	65.5	65.5	65.5	56	49.4	2	5	248	0.00	29.927 
09:50	65.5	65.5	65.5	57	49.9	2	6	270	0.00	29.924 
09:55	65.2	65.2	65.2	58	50.0	2	5	292	0.00	29.923 
10:00	64.5	64.5	64.5	58	49.4	2	5	248	0.00	29.928 
10:05	64.3	64.3	64.3	58	49.2	2	4	292	0.00	29.928 
10:10	65.2	65.2	65.2	58	50.0	2	5	270	0.00	29.928 
10:15	64.7	64.7	64.7	56	48.6	3	5	248	0.00	29.928 
10:20	65.3	65.3	65.3	56	49.2	3	6	270	0.00	29.928 
10:25	66.1	66.1	66.1	51	47.4	2	4	292	0.00	29.931 
10:30	66.4	66.4	66.4	54	49.2	2	5	270	0.00	29.928 
10:35	67.3	67.3	67.3	50	48.0	2	5	270	0.00	29.925 
10:40	67.1	67.1	67.1	50	47.8	2	5	248	0.00	29.926 
10:45	66.8	66.8	66.8	52	48.6	3	9	292	0.00	29.926 
10:50	67.3	67.3	67.3	48	46.9	2	5	248	0.00	29.925 
10:55	66.8	66.8	66.8	49	47.0	2	6	270	0.00	29.926 
11:00	66.8	66.8	66.8	51	48.1	2	5	270	0.00	29.924 
11:05	67.1	67.1	67.1	51	48.4	3	5	270	0.00	29.924 
11:10	66.4	66.4	66.4	48	46.1	3	6	270	0.00	29.925 
11:15	66.6	66.6	66.6	52	48.4	2	3	338	0.00	29.926 
11:20	67.3	67.3	67.3	49	47.5	2	6	292	0.00	29.923 
11:25	67.6	67.6	67.6	50	48.3	2	5	315	0.00	29.923 
11:30	67.6	67.6	67.6	48	47.2	2	4	315	0.00	29.922 
11:35	67.4	67.4	67.4	50	48.1	2	6	292	0.00	29.922 
11:40	67.6	67.6	67.6	52	49.3	3	7	270	0.00	29.922 
11:45	66.8	66.8	66.8	49	47.0	2	5	248	0.00	29.923 
11:50	65.8	65.8	65.8	53	48.2	2	5	315	0.00	29.924 
11:55	66.6	66.6	66.6	52	48.4	2	5	292	0.00	29.923 
12:00	67.1	67.1	67.1	50	47.8	2	5	270	0.00	29.917 
12:05	66.4	66.4	66.4	54	49.2	3	8	270	0.00	29.921 
12:10	67.3	67.3	67.3	54	50.1	1	5	270	0.00	29.915 
12:15	67.9	67.9	67.9	51	49.1	2	4	292	0.00	29.915 
12:20	67.9	67.9	67.9	51	49.1	2	5	292	0.00	29.915 
12:25	67.9	67.9	67.9	52	49.6	3	7	270	0.00	29.916 
12:30	68.8	68.8	68.8	51	49.9	3	5	270	0.00	29.912 
12:35	68.4	68.4	68.4	49	48.5	3	6	270	0.00	29.915 
12:40	67.6	67.6	67.6	50	48.3	2	5	270	0.00	29.913 
12:45	68.1	68.1	68.1	51	49.3	2	5	292	0.00	29.913 
12:50	68.1	68.1	68.1	50	48.7	2	5	292	0.00	29.911 
12:55	68.4	68.4	68.4	47	47.4	3	7	270	0.00	29.911 
13:00	67.8	67.8	67.8	49	47.9	3	5	315	0.00	29.912 
13:05	68.3	68.3	68.3	50	48.9	2	6	270	0.00	29.908 
13:10	68.6	68.6	68.6	48	48.1	2	6	248	0.00	29.908 
13:15	68.8	68.8	68.8	48	48.3	2	6	270	0.00	29.911 
13:20	67.8	67.8	67.8	46	46.3	3	7	292	0.00	29.913 
13:25	67.8	67.8	67.8	48	47.4	2	5	292	0.00	29.914 
13:30	68.3	68.3	68.3	45	46.1	2	4	315	0.00	29.911 
13:35	68.6	68.6	68.6	44	45.8	3	7	315	0.00	29.912 
13:40	68.6	68.6	68.6	44	45.8	3	5	338	0.00	29.917 
13:45	68.8	68.8	68.8	45	46.6	3	6	315	0.00	29.915 
13:50	68.6	68.6	68.6	45	46.4	3	6	270	0.00	29.917 
13:55	69.4	69.4	69.4	45	47.1	3	6	270	0.00	29.918 
14:00	69.4	69.4	69.4	43	45.9	3	7	270	0.00	29.918 
14:05	68.6	68.6	68.6	46	47.0	2	7	292	0.00	29.923 
14:10	67.9	67.9	67.9	45	45.8	3	6	270	0.00	29.923 
14:15	68.8	68.8	68.8	45	46.6	3	7	270	0.00	29.922 
14:20	69.4	69.4	69.4	44	46.5	2	6	315	0.00	29.922 
14:25	69.4	69.4	69.4	43	45.9	4	8	270	0.00	29.921 
14:30	70.1	70.1	70.1	42	45.9	3	6	270	0.00	29.919 
14:35	69.6	69.6	69.6	42	45.5	3	6	270	0.00	29.917 
14:40	69.3	69.3	69.3	43	45.8	2	6	315	0.00	29.916 
14:45	69.4	69.4	69.4	43	45.9	2	7	270	0.00	29.915 
14:50	69.4	69.4	69.4	42	45.3	3	7	315	0.00	29.917 
14:55	69.4	69.4	69.4	43	45.9	2	6	270	0.00	29.916 
15:00	69.6	69.6	69.6	42	45.5	3	6	292	0.00	29.915 
15:05	69.4	69.4	69.4	43	45.9	2	6	315	0.00	29.918 
15:10	69.9	69.9	69.9	41	45.1	2	6	315	0.00	29.918 
15:15	69.9	69.9	69.9	39	43.8	3	6	315	0.00	29.915 
15:20	69.4	69.4	69.4	41	44.7	3	5	270	0.00	29.914 
15:25	68.8	68.8	68.8	43	45.4	3	9	270	0.00	29.916 
15:30	69.1	69.1	69.1	43	45.7	3	8	270	0.00	29.913 
15:35	69.4	69.4	69.4	41	44.7	3	7	270	0.00	29.912 
15:40	69.3	69.3	69.3	40	43.9	3	6	292	0.00	29.914 
15:45	69.3	69.3	69.3	42	45.2	2	9	270	0.00	29.912 
15:50	69.6	69.6	69.6	39	43.5	4	6	270	0.00	29.915 
15:55	69.6	69.6	69.6	41	44.8	2	6	270	0.00	29.913 
16:00	69.9	69.9	69.9	40	44.5	3	6	315	0.00	29.913 
16:05	70.4	70.4	70.4	39	44.2	3	5	270	0.00	29.913 
16:10	70.1	70.1	70.1	41	45.3	3	6	270	0.00	29.913 
16:15	69.8	69.8	69.8	37	42.3	3	9	292	0.00	29.913 
16:20	69.6	69.6	69.6	38	42.9	3	10	315	0.00	29.911 
16:25	69.6	69.6	69.6	39	43.5	2	5	315	0.00	29.913 
16:30	68.9	68.9	68.9	39	42.9	2	5	315	0.00	29.917 
16:35	69.4	69.4	69.4	37	42.0	3	6	292	0.00	29.914 
16:40	69.1	69.1	69.1	40	43.8	2	5	315	0.00	29.914 
16:45	69.3	69.3	69.3	37	41.9	3	7	315	0.00	29.918 
16:50	69.3	69.3	69.3	39	43.3	3	9	270	0.00	29.916 
16:55	69.6	69.6	69.6	39	43.5	2	7	315	0.00	29.913 
17:00	69.8	69.8	69.8	39	43.7	1	5	292	0.00	29.915 
17:05	69.6	69.6	69.6	37	42.2	2	7	292	0.00	29.909 
17:10	69.3	69.3	69.3	38	42.6	2	5	292	0.00	29.910 
17:15	69.4	69.4	69.4	38	42.7	1	4	315	0.00	29.911 
17:20	69.4	69.4	69.4	37	42.0	3	7	270	0.00	29.910 
17:25	69.3	69.3	69.3	37	41.9	2	4	315	0.00	29.908 
17:30	69.4	69.4	69.4	39	43.4	1	2	315	0.00	29.906 
17:35	69.1	69.1	69.1	38	42.4	2	7	248	0.00	29.905 
17:40	68.4	68.4	68.4	38	41.8	1	3	315	0.00	29.900 
17:45	68.6	68.6	68.6	41	44.0	1	3	292	0.00	29.899 
17:50	68.6	68.6	68.6	40	43.3	2	4	292	0.00	29.898 
17:55	68.4	68.4	68.4	40	43.1	2	5	315	0.00	29.898 
18:00	68.4	68.4	68.4	42	44.4	1	4	248	0.00	29.895 
18:05	68.1	68.1	68.1	41	43.5	1	3	315	0.00	29.889 
18:10	67.9	67.9	67.9	42	44.0	1	4	315	0.00	29.889 
18:15	68.1	68.1	68.1	42	44.1	1	3	292	0.00	29.888 
18:20	68.1	68.1	68.1	43	44.7	0	1	292	0.00	29.888 
18:25	68.4	68.4	68.4	42	44.4	0	1	292	0.00	29.886 
18:30	68.6	68.6	68.6	44	45.8	1	3	292	0.00	29.882 
18:35	68.9	68.9	68.9	42	44.9	2	9	315	0.00	29.882 
18:40	68.6	68.6	68.6	43	45.2	1	4	315	0.00	29.881 
18:45	68.6	68.6	68.6	42	44.6	1	2	315	0.00	29.880 
18:50	68.8	68.8	68.8	43	45.4	1	3	315	0.00	29.880 
18:55	68.9	68.9	68.9	42	44.9	0	2	315	0.00	29.878 
19:00	68.8	68.8	68.8	44	46.0	1	3	315	0.00	29.876 
19:05	68.6	68.6	68.6	44	45.8	0	1	315	0.00	29.872 
19:10	68.6	68.6	68.6	43	45.2	1	4	315	0.00	29.873 
19:15	68.4	68.4	68.4	42	44.4	1	2	292	0.00	29.872 
19:20	68.4	68.4	68.4	43	45.0	1	2	248	0.00	29.871 
19:25	68.3	68.3	68.3	43	44.9	0	2	292	0.00	29.870 
19:30	68.1	68.1	68.1	44	45.4	0	2	248	0.00	29.869 
19:35	67.9	67.9	67.9	45	45.8	0	0	---	0.00	29.869 
19:40	67.8	67.8	67.8	46	46.3	0	1	248	0.00	29.868 
19:45	67.6	67.6	67.6	45	45.5	0	1	248	0.00	29.867 
19:50	67.4	67.4	67.4	46	45.9	0	0	---	0.00	29.865 
19:55	67.3	67.3	67.3	46	45.8	0	2	270	0.00	29.865 
20:00	67.3	67.3	67.3	46	45.8	0	1	270	0.00	29.866 
20:05	67.1	67.1	67.1	48	46.7	0	0	---	0.00	29.866 
20:10	66.9	66.9	66.9	47	46.0	0	0	---	0.00	29.865 
20:15	66.8	66.8	66.8	48	46.5	0	1	270	0.00	29.862 
20:20	66.6	66.6	66.6	48	46.3	0	0	---	0.00	29.861 
20:25	66.3	66.3	66.3	49	46.6	0	0	---	0.00	29.861 
20:30	66.0	66.0	66.0	50	46.8	0	0	---	0.00	29.860 
20:35	65.5	65.5	65.5	51	46.9	0	0	---	0.00	29.861 
20:40	65.2	65.2	65.2	52	47.1	0	0	---	0.00	29.862 
20:45	64.7	64.7	64.7	53	47.2	0	0	---	0.00	29.862 
20:50	64.2	64.2	64.2	54	47.2	0	0	---	0.00	29.862 
20:55	63.7	63.7	63.7	55	47.2	0	0	---	0.00	29.860 
21:00	63.2	63.2	63.2	55	46.8	0	0	---	0.00	29.860 
21:05	62.9	62.9	62.9	57	47.4	0	0	---	0.00	29.857 
21:10	62.4	62.4	62.4	57	47.0	0	0	---	0.00	29.856 
21:15	62.0	62.0	62.0	58	47.0	0	0	---	0.00	29.857 
21:20	61.6	61.6	61.6	58	46.7	0	0	---	0.00	29.857 
21:25	61.2	61.2	61.2	59	46.8	0	0	---	0.00	29.857 
21:30	60.9	60.9	60.9	61	47.4	0	0	---	0.00	29.857 
21:35	60.5	60.5	60.5	62	47.4	0	0	---	0.00	29.858 
21:40	60.2	60.2	60.2	62	47.1	0	0	---	0.00	29.859 
21:45	59.9	59.9	59.9	64	47.7	0	0	---	0.00	29.859 
21:50	59.8	59.8	59.8	65	48.0	0	0	---	0.00	29.858 
21:55	59.5	59.5	59.5	64	47.3	0	0	---	0.00	29.858 
22:00	59.3	59.3	59.3	64	47.1	0	0	---	0.00	29.858 
22:05	59.2	59.2	59.2	65	47.4	0	0	---	0.00	29.855 
22:10	59.0	59.0	59.0	66	47.7	0	0	---	0.00	29.855 
22:15	58.9	58.9	58.9	67	48.0	0	0	---	0.00	29.854 
22:20	58.7	58.7	58.7	68	48.2	0	0	---	0.00	29.853 
22:25	58.6	58.6	58.6	69	48.5	0	0	---	0.00	29.852 
22:30	58.4	58.4	58.4	70	48.7	0	0	---	0.00	29.854 
22:35	58.3	58.3	58.3	69	48.2	0	0	---	0.00	29.854 
22:40	58.4	58.4	58.4	69	48.3	0	0	---	0.00	29.852 
22:45	58.6	58.6	58.6	69	48.5	0	0	---	0.00	29.848 
22:50	58.7	58.7	58.7	68	48.2	0	0	---	0.00	29.848 
22:55	58.9	58.9	58.9	67	48.0	0	0	---	0.00	29.847 
23:00	59.0	59.0	59.0	68	48.5	0	0	---	0.00	29.843 
23:05	58.9	58.9	58.9	68	48.4	0	0	---	0.00	29.842 
23:10	58.9	58.9	58.9	68	48.4	0	0	---	0.00	29.841 
23:15	58.7	58.7	58.7	69	48.6	0	1	270	0.00	29.840 
23:20	58.6	58.6	58.6	68	48.1	0	0	---	0.00	29.840 
23:25	58.4	58.4	58.4	69	48.3	0	0	---	0.00	29.842 
23:30	58.1	58.1	58.1	69	48.0	0	0	---	0.00	29.842 
23:35	58.0	58.0	58.0	70	48.3	0	0	---	0.00	29.842 
23:40	57.8	57.8	57.8	71	48.5	0	0	---	0.00	29.842 
23:45	57.6	57.6	57.6	71	48.3	0	0	---	0.00	29.840 
23:50	57.6	57.6	57.6	72	48.6	0	0	---	0.00	29.839 
23:55	57.6	57.6	57.6	73	49.0	0	0	---	0.00	29.837 

CoCoRaHS
IN-AL-39
A2 Web Hosting
Creative Commons License
GoDaddy
Look for:

loaded 2017-10-19 12:12:52 • last modified 2010-11-18 10:43:29
Privacy PolicyDisclaimer
• wx.awcolley.com is powered by PmWiki v.2002016 •
• all content (unless otherwise noted) © 2017 A W Colley